createdAt,value
2023-01-05T00:11:29.545Z,11.10
2023-01-05T00:14:36.762Z,10.40
2023-01-05T00:17:42.492Z,9.90
2023-01-05T00:20:46.391Z,10.30
2023-01-05T00:23:31.972Z,10.20
2023-01-05T00:26:17.624Z,10.70
2023-01-05T00:29:03.251Z,10.70
2023-01-05T00:31:48.936Z,10.30
2023-01-05T00:34:34.595Z,10.30
2023-01-05T00:40:09.149Z,10.70
2023-01-05T00:45:40.959Z,10.50
2023-01-05T00:51:12.671Z,10.00
2023-01-05T00:53:58.094Z,10.60
2023-01-05T00:59:29.831Z,10.40
2023-01-05T01:02:16.427Z,10.20
2023-01-05T01:05:02.700Z,10.60
2023-01-05T01:07:49.837Z,10.20
2023-01-05T01:10:35.443Z,10.60
2023-01-05T01:16:09.541Z,10.80
2023-01-05T01:18:56.526Z,10.80
2023-01-05T01:24:28.384Z,10.30
2023-01-05T01:27:14.269Z,10.30
2023-01-05T01:29:59.939Z,10.40
2023-01-05T01:35:31.829Z,10.70
2023-01-05T01:38:17.591Z,10.20
2023-01-05T01:41:03.310Z,10.20
2023-01-05T01:43:56.876Z,10.00
2023-01-05T01:46:44.602Z,10.50
2023-01-05T01:49:30.303Z,10.50
2023-01-05T01:52:16.029Z,10.50
2023-01-05T01:55:04.679Z,10.40
2023-01-05T01:57:51.433Z,10.60
2023-01-05T02:00:39.988Z,10.30
2023-01-05T02:03:25.991Z,10.50
2023-01-05T02:06:13.102Z,10.10
2023-01-05T02:08:58.846Z,10.00
2023-01-05T02:11:58.660Z,10.30
2023-01-05T02:15:06.331Z,9.80
2023-01-05T02:18:31.822Z,10.30
2023-01-05T02:21:24.965Z,10.30
2023-01-05T02:24:48.511Z,10.20
2023-01-05T02:28:05.249Z,9.90
2023-01-05T02:31:09.504Z,10.10
2023-01-05T02:34:12.312Z,11.00
2023-01-05T02:40:00.120Z,10.30
2023-01-05T02:42:51.001Z,10.10
2023-01-05T02:45:38.212Z,10.20
2023-01-05T02:48:24.450Z,9.60
2023-01-05T02:51:16.386Z,9.90
2023-01-05T02:54:12.774Z,10.10
2023-01-05T02:57:04.151Z,9.80
2023-01-05T02:59:54.352Z,9.80
2023-01-05T03:02:44.298Z,10.20
2023-01-05T03:05:47.526Z,10.20
2023-01-05T03:08:39.662Z,9.80
2023-01-05T03:11:49.626Z,9.90
2023-01-05T03:15:13.606Z,9.70
2023-01-05T03:18:04.364Z,9.90
2023-01-05T03:20:51.999Z,9.60
2023-01-05T03:27:02.856Z,10.60
2023-01-05T03:30:07.602Z,10.20
2023-01-05T03:33:17.823Z,9.90
2023-01-05T03:36:06.091Z,10.20
2023-01-05T03:38:54.352Z,9.70
2023-01-05T03:41:41.723Z,9.50
2023-01-05T03:44:27.724Z,9.60
2023-01-05T03:47:14.987Z,9.90
2023-01-05T03:50:02.480Z,9.70
2023-01-05T03:52:49.992Z,10.40
2023-01-05T03:55:35.619Z,9.50
2023-01-05T03:58:21.455Z,10.20
2023-01-05T04:01:08.953Z,9.90
2023-01-05T04:03:56.235Z,9.50
2023-01-05T04:06:42.404Z,9.90
2023-01-05T04:09:29.808Z,10.10
2023-01-05T04:12:16.121Z,9.50
2023-01-05T04:15:07.096Z,9.60
2023-01-05T04:17:53.324Z,10.00
2023-01-05T04:20:39.154Z,9.50
2023-01-05T04:23:25.479Z,9.50
2023-01-05T04:26:13.884Z,9.70
2023-01-05T04:31:46.824Z,9.60
2023-01-05T04:34:32.696Z,9.80
2023-01-05T04:40:07.344Z,10.20
2023-01-05T04:43:01.084Z,9.70
2023-01-05T04:45:48.317Z,10.00
2023-01-05T04:48:34.562Z,10.10
2023-01-05T04:54:06.942Z,9.80
2023-01-05T04:56:53.575Z,10.40
2023-01-05T05:02:25.515Z,10.00
2023-01-05T05:07:58.796Z,9.70
2023-01-05T05:16:20.217Z,10.30
2023-01-05T05:19:09.456Z,10.30
2023-01-05T05:30:17.823Z,9.80
2023-01-05T05:44:08.361Z,10.40
2023-01-05T05:46:54.463Z,10.40
2023-01-05T05:57:58.294Z,9.90
2023-01-05T06:00:44.346Z,10.40
2023-01-05T06:03:29.733Z,10.20
2023-01-05T06:09:01.459Z,10.20
2023-01-05T06:11:47.121Z,11.10
2023-01-05T06:14:32.776Z,9.90
2023-01-05T06:20:05.364Z,10.00
2023-01-05T06:31:09.532Z,9.80
2023-01-05T06:44:59.513Z,10.10
2023-01-05T06:47:45.368Z,9.80
2023-01-05T06:50:32.116Z,10.10
2023-01-05T06:53:17.840Z,9.90
2023-01-05T06:56:03.576Z,9.80
2023-01-05T06:58:49.257Z,10.20
2023-01-05T07:01:35.150Z,10.30
2023-01-05T07:04:20.640Z,9.70
2023-01-05T07:07:06.366Z,10.40
2023-01-05T07:15:25.581Z,9.70
2023-01-05T07:18:12.149Z,10.00
2023-01-05T07:21:00.739Z,10.10
2023-01-05T07:23:46.067Z,9.90
2023-01-05T07:26:31.548Z,10.10
2023-01-05T07:29:17.476Z,9.60
2023-01-05T07:32:03.407Z,10.10
2023-01-05T07:34:55.229Z,10.00
2023-01-05T07:48:47.216Z,10.40
2023-01-05T07:51:32.790Z,10.30
2023-01-05T07:57:04.659Z,10.00
2023-01-05T07:59:51.269Z,10.10
2023-01-05T08:02:37.013Z,10.20
2023-01-05T08:05:22.834Z,10.40
2023-01-05T08:10:54.745Z,10.20
2023-01-05T08:13:58.660Z,10.30
2023-01-05T08:16:44.145Z,10.20
2023-01-05T08:22:15.927Z,10.40
2023-01-05T08:25:01.658Z,10.40
2023-01-05T08:27:48.322Z,10.90
2023-01-05T08:30:34.154Z,10.10
2023-01-05T08:36:12.283Z,10.50
2023-01-05T08:38:58.010Z,10.30
2023-01-05T08:41:44.498Z,10.20
2023-01-05T08:47:18.305Z,10.50
2023-01-05T08:50:04.208Z,9.90
2023-01-05T08:52:49.698Z,10.80
2023-01-05T08:55:35.283Z,11.40
2023-01-05T08:58:20.992Z,10.60
2023-01-05T09:01:14.995Z,11.10
2023-01-05T09:15:06.819Z,10.60
2023-01-05T09:17:52.875Z,10.70
2023-01-05T09:26:13.879Z,10.50
2023-01-05T09:29:03.358Z,10.50
2023-01-05T09:31:48.943Z,10.30
2023-01-05T09:34:34.554Z,10.20
2023-01-05T09:37:20.413Z,10.80
2023-01-05T09:40:06.538Z,10.60
2023-01-05T09:48:26.156Z,10.70
2023-01-05T09:51:13.461Z,10.90
2023-01-05T09:54:00.657Z,10.70
2023-01-05T09:57:09.128Z,11.00
2023-01-05T09:59:59.270Z,10.70
2023-01-05T10:03:44.759Z,11.10
2023-01-05T10:06:29.504Z,10.70
2023-01-05T10:09:22.057Z,10.40
2023-01-05T10:12:46.424Z,10.70
2023-01-05T10:15:53.056Z,10.50
2023-01-05T10:18:38.777Z,10.70
2023-01-05T10:21:41.723Z,10.40
2023-01-05T10:24:49.920Z,10.50
2023-01-05T10:28:07.452Z,11.40
2023-01-05T10:31:00.229Z,10.80
2023-01-05T10:34:01.778Z,11.00
2023-01-05T10:37:13.059Z,10.60
2023-01-05T10:40:28.151Z,11.10
2023-01-05T10:43:50.834Z,11.00
2023-01-05T10:46:45.953Z,11.10
2023-01-05T10:49:34.271Z,10.70
2023-01-05T10:52:22.188Z,11.70
2023-01-05T10:55:16.092Z,11.20
2023-01-05T10:58:01.919Z,11.00
2023-01-05T11:00:48.064Z,10.60
2023-01-05T11:09:41.219Z,11.00
2023-01-05T11:12:28.123Z,11.10
2023-01-05T11:15:15.561Z,11.10
2023-01-05T11:18:01.955Z,10.50
2023-01-05T11:21:19.997Z,11.00
2023-01-05T11:24:28.854Z,11.20
2023-01-05T11:27:20.216Z,10.90
2023-01-05T11:30:20.492Z,11.30
2023-01-05T11:33:25.417Z,11.40
2023-01-05T11:36:14.889Z,11.10
2023-01-05T11:39:00.598Z,11.10
2023-01-05T11:41:47.524Z,11.10
2023-01-05T11:44:34.712Z,11.60
2023-01-05T11:47:45.497Z,10.70
2023-01-05T11:50:43.884Z,10.90
2023-01-05T11:53:38.486Z,11.40
2023-01-05T11:56:25.396Z,11.20
2023-01-05T11:59:29.697Z,10.80
2023-01-05T12:02:42.498Z,11.10
2023-01-05T12:05:37.292Z,11.20
2023-01-05T12:08:59.497Z,11.00
2023-01-05T12:12:00.532Z,11.20
2023-01-05T12:15:27.392Z,11.60
2023-01-05T12:18:47.125Z,11.80
2023-01-05T12:21:48.283Z,10.90
2023-01-05T12:25:12.322Z,11.30
2023-01-05T12:28:35.648Z,11.40
2023-01-05T12:35:04.607Z,11.00
2023-01-05T12:38:08.575Z,10.80
2023-01-05T12:41:19.510Z,11.00
2023-01-05T12:44:44.981Z,10.80
2023-01-05T12:47:43.124Z,11.00
2023-01-05T12:50:50.644Z,11.20
2023-01-05T12:53:37.444Z,10.80
2023-01-05T12:56:34.046Z,11.30
2023-01-05T12:59:38.134Z,11.80
2023-01-05T13:02:40.351Z,11.60
2023-01-05T13:05:46.073Z,11.30
2023-01-05T13:08:36.364Z,11.20
2023-01-05T13:11:29.818Z,11.30
2023-01-05T13:14:22.613Z,11.40
2023-01-05T13:17:27.315Z,10.90
2023-01-05T13:20:37.061Z,11.50
2023-01-05T13:23:28.505Z,11.50
2023-01-05T13:26:22.205Z,11.40
2023-01-05T13:29:16.778Z,11.20
2023-01-05T13:32:39.393Z,11.40
2023-01-05T13:35:46.257Z,11.30
2023-01-05T13:38:53.351Z,10.60
2023-01-05T13:42:19.566Z,11.10
2023-01-05T13:45:22.502Z,10.90
2023-01-05T13:48:38.287Z,10.90
2023-01-05T13:51:53.901Z,11.30
2023-01-05T13:55:00.550Z,11.00
2023-01-05T13:57:48.434Z,11.30
2023-01-05T14:00:39.569Z,11.30
2023-01-05T14:03:56.409Z,11.30
2023-01-05T14:06:46.076Z,10.60
2023-01-05T14:12:18.059Z,10.80
2023-01-05T14:15:42.673Z,10.60
2023-01-05T14:18:51.247Z,10.60
2023-01-05T14:21:48.912Z,10.90
2023-01-05T14:24:37.030Z,10.80
2023-01-05T14:27:24.518Z,10.80
2023-01-05T14:30:21.440Z,10.70
2023-01-05T14:33:10.291Z,10.60
2023-01-05T14:35:55.792Z,10.60
2023-01-05T14:38:47.908Z,10.30
2023-01-05T14:41:33.941Z,11.00
2023-01-05T14:44:25.454Z,10.60
2023-01-05T14:47:12.067Z,10.60
2023-01-05T14:50:03.729Z,10.60
2023-01-05T14:53:00.472Z,10.90
2023-01-05T14:55:51.881Z,10.70
2023-01-05T14:58:37.439Z,10.90
2023-01-05T15:01:38.009Z,10.80
2023-01-05T15:04:40.680Z,10.50
2023-01-05T15:07:45.786Z,10.90
2023-01-05T15:10:41.834Z,10.90
2023-01-05T15:14:07.345Z,10.30
2023-01-05T15:17:19.327Z,10.60
2023-01-05T15:20:20.036Z,10.80
2023-01-05T15:23:43.200Z,10.50
2023-01-05T15:26:34.467Z,10.00
2023-01-05T15:29:46.380Z,10.00
2023-01-05T15:32:40.434Z,11.20
2023-01-05T15:35:36.561Z,10.00
2023-01-05T15:38:26.969Z,11.40
2023-01-05T15:41:16.887Z,10.30
2023-01-05T15:46:50.162Z,10.40
2023-01-05T15:52:37.782Z,10.40
2023-01-05T15:55:24.531Z,9.50
2023-01-05T15:58:16.734Z,10.00
2023-01-05T16:01:10.225Z,10.20
2023-01-05T16:04:13.248Z,10.40
2023-01-05T16:07:01.953Z,10.00
2023-01-05T16:15:22.341Z,10.00
2023-01-05T16:18:14.418Z,10.40
2023-01-05T16:21:08.288Z,10.50
2023-01-05T16:24:29.184Z,10.00
2023-01-05T16:27:16.623Z,10.30
2023-01-05T16:30:23.216Z,10.10
2023-01-05T16:33:12.153Z,10.30
2023-01-05T16:36:07.163Z,10.00
2023-01-05T16:38:52.694Z,10.20
2023-01-05T16:41:59.787Z,10.10
2023-01-05T16:45:59.179Z,10.30
2023-01-05T16:48:49.766Z,10.20
2023-01-05T16:54:38.240Z,10.00
2023-01-05T16:58:15.117Z,10.10
2023-01-05T17:01:53.285Z,10.00
2023-01-05T17:04:38.727Z,9.80
2023-01-05T17:07:24.675Z,10.90
2023-01-05T17:10:17.539Z,9.90
2023-01-05T17:13:11.970Z,9.70
2023-01-05T17:15:58.257Z,10.10
2023-01-05T17:18:50.015Z,9.40
2023-01-05T17:24:48.857Z,9.90
2023-01-05T17:30:21.951Z,9.40
2023-01-05T17:35:55.864Z,9.90
2023-01-05T17:41:27.307Z,10.40
2023-01-05T17:44:13.396Z,10.10
2023-01-05T17:46:59.194Z,10.40
2023-01-05T17:49:44.874Z,9.60
2023-01-05T17:52:31.044Z,9.10
2023-01-05T18:06:21.854Z,9.90
2023-01-05T18:09:07.814Z,9.40
2023-01-05T18:17:26.478Z,9.30
2023-01-05T18:20:14.429Z,9.30
2023-01-05T18:25:46.710Z,9.80
2023-01-05T18:34:10.038Z,9.50
2023-01-05T18:37:01.975Z,9.30
2023-01-05T18:39:52.408Z,9.50
2023-01-05T18:42:38.465Z,8.80
2023-01-05T18:51:10.671Z,9.50
2023-01-05T18:56:42.560Z,8.90
2023-01-05T18:59:28.198Z,9.00
2023-01-05T19:02:15.378Z,8.80
2023-01-05T19:05:00.763Z,8.90
2023-01-05T19:07:51.451Z,9.40
2023-01-05T19:10:37.827Z,9.80
2023-01-05T19:16:09.439Z,9.70
2023-01-05T19:19:01.372Z,9.30
2023-01-05T19:27:46.711Z,8.60
2023-01-05T19:30:32.271Z,10.10
2023-01-05T19:33:17.811Z,8.90
2023-01-05T19:36:10.258Z,9.00
2023-01-05T19:38:55.630Z,9.20
2023-01-05T19:41:46.680Z,9.00
2023-01-05T19:44:32.653Z,8.80
2023-01-05T19:47:18.320Z,8.90
2023-01-05T19:50:04.212Z,9.10
2023-01-05T19:52:49.535Z,8.70
2023-01-05T19:55:39.279Z,9.40
2023-01-05T20:01:15.925Z,8.60
2023-01-05T20:04:02.137Z,8.80
2023-01-05T20:12:20.038Z,9.70
2023-01-05T20:15:06.934Z,8.60
2023-01-05T20:17:52.766Z,8.80
2023-01-05T20:23:37.759Z,8.50
2023-01-05T20:26:27.113Z,8.10
2023-01-05T20:29:14.816Z,8.00
2023-01-05T20:32:03.990Z,7.80
2023-01-05T20:34:52.676Z,7.40
2023-01-05T20:43:10.367Z,7.70
2023-01-05T20:54:15.130Z,7.80
2023-01-05T20:57:01.267Z,7.30
2023-01-05T21:02:33.276Z,7.90
2023-01-05T21:08:05.092Z,7.50
2023-01-05T21:10:59.284Z,7.50
2023-01-05T21:13:46.965Z,7.80
2023-01-05T21:16:44.551Z,7.70
2023-01-05T21:19:29.985Z,7.80
2023-01-05T21:22:15.792Z,7.60
2023-01-05T21:25:01.411Z,7.90
2023-01-05T21:27:47.039Z,7.90
2023-01-05T21:30:33.348Z,7.40
2023-01-05T21:33:18.787Z,8.00
2023-01-05T21:36:05.390Z,8.20
2023-01-05T21:39:01.741Z,7.70
2023-01-05T21:42:09.478Z,7.60
2023-01-05T21:50:45.792Z,7.70
2023-01-05T21:53:50.675Z,7.30
2023-01-05T21:56:41.966Z,7.40
2023-01-05T21:59:29.972Z,7.20
2023-01-05T22:02:16.291Z,6.40
2023-01-05T22:05:02.545Z,6.70
2023-01-05T22:07:47.966Z,6.80
2023-01-05T22:10:34.728Z,6.80
2023-01-05T22:13:20.408Z,6.90
2023-01-05T22:16:07.367Z,7.40
2023-01-05T22:18:53.113Z,6.80
2023-01-05T22:21:38.799Z,7.30
2023-01-05T22:24:24.363Z,7.30
2023-01-05T22:29:55.919Z,6.90
2023-01-05T22:32:41.445Z,7.20
2023-01-05T22:35:27.913Z,7.40
2023-01-05T22:38:13.636Z,7.60
2023-01-05T22:40:59.976Z,7.40
2023-01-05T22:43:46.336Z,7.50
2023-01-05T22:46:31.951Z,7.40
2023-01-05T22:49:18.896Z,7.60
2023-01-05T22:52:04.741Z,7.30
2023-01-05T22:54:50.116Z,7.50
2023-01-05T23:00:22.138Z,7.10
2023-01-05T23:03:07.946Z,7.50
2023-01-05T23:05:53.752Z,7.00
2023-01-05T23:08:40.694Z,7.40
2023-01-05T23:11:29.318Z,7.20
2023-01-05T23:14:18.526Z,7.50
2023-01-05T23:17:04.485Z,7.40
2023-01-05T23:19:50.031Z,7.40
2023-01-05T23:25:21.822Z,7.70
2023-01-05T23:30:55.391Z,7.20
2023-01-05T23:33:41.585Z,7.30
2023-01-05T23:50:17.918Z,6.90
2023-01-05T23:53:04.227Z,7.00
2023-01-05T23:58:36.471Z,7.40
